Time;durP1;ratioP1;P1;durP2;ratioP2;P2;SDS_P1;SDS_P2;PMS_P1;PMS_P2;Temp;Humidity;BMP_temperature;BMP_pressure;BME280_temperature;BME280_humidity;BME280_pressure;Samples;Min_cycle;Max_cycle;Signal;HPM_P1;HPM_P2
2022/09/09 00:02:20;;;;;;;13.40;6.80;;;15.30;99.90;;;;;;4998516;28;20506;-71
2022/09/09 00:05:27;;;;;;;14.10;6.63;;;15.10;99.90;;;;;;5019334;28;20038;-71
2022/09/09 00:07:57;;;;;;;13.68;6.80;;;15.20;99.90;;;;;;5019852;28;20045;-71
2022/09/09 00:10:29;;;;;;;12.55;6.78;;;15.10;99.90;;;;;;4994678;28;20152;-72
2022/09/09 00:13:00;;;;;;;14.00;7.15;;;15.20;99.90;;;;;;5021116;28;20132;-72
2022/09/09 00:15:35;;;;;;;16.05;6.75;;;15.10;99.90;;;;;;5016954;28;20042;-72
2022/09/09 00:18:18;;;;;;;12.88;7.03;;;15.00;99.90;;;;;;5010009;28;20393;-71
2022/09/09 00:21:07;;;;;;;12.80;6.95;;;15.00;99.90;;;;;;5020636;28;20037;-71
2022/09/09 00:23:44;;;;;;;12.50;6.38;;;15.00;99.90;;;;;;5014679;28;20042;-72
2022/09/09 00:26:20;;;;;;;13.70;6.70;;;15.00;99.90;;;;;;5017070;28;20295;-71
2022/09/09 00:29:00;;;;;;;14.30;6.90;;;15.00;99.90;;;;;;5017699;28;20061;-72
2022/09/09 00:31:29;;;;;;;14.32;6.47;;;15.00;99.90;;;;;;4995097;28;20069;-71
2022/09/09 00:34:02;;;;;;;14.70;6.68;;;15.00;99.90;;;;;;5018580;28;20040;-70
2022/09/09 00:36:29;;;;;;;12.77;6.32;;;15.00;99.90;;;;;;5011914;28;20113;-73
2022/09/09 00:38:59;;;;;;;13.93;6.60;;;15.00;99.90;;;;;;5014355;28;20436;-71
2022/09/09 00:42:09;;;;;;;13.68;7.07;;;15.00;99.90;;;;;;4999151;28;20072;-72
2022/09/09 00:44:38;;;;;;;11.68;6.75;;;15.00;99.90;;;;;;4999995;28;20480;-72
2022/09/09 00:47:22;;;;;;;12.68;6.88;;;15.00;99.90;;;;;;5015447;28;20107;-71
2022/09/09 00:50:06;;;;;;;12.75;6.90;;;15.00;99.90;;;;;;5021430;28;20120;-71
2022/09/09 00:52:59;;;;;;;14.48;7.47;;;15.00;99.90;;;;;;5019592;28;20133;-70
2022/09/09 00:55:45;;;;;;;;;;;15.00;99.90;;;;;;5021203;28;22135;-72
2022/09/09 00:58:12;;;;;;;13.45;6.45;;;14.90;99.90;;;;;;5020120;28;19940;-72
2022/09/09 01:01:06;;;;;;;11.85;6.65;;;14.90;99.90;;;;;;5012050;28;20096;-71
2022/09/09 01:03:45;;;;;;;14.60;6.88;;;14.90;99.90;;;;;;5014809;28;20062;-70
2022/09/09 01:06:31;;;;;;;12.15;6.70;;;14.90;99.90;;;;;;5009059;28;20054;-71
2022/09/09 01:09:22;;;;;;;14.45;6.95;;;14.90;99.90;;;;;;4996279;28;20504;-71
2022/09/09 01:11:59;;;;;;;15.77;7.28;;;14.90;99.90;;;;;;5019652;28;20570;-72
2022/09/09 01:14:34;;;;;;;13.80;6.63;;;14.80;99.90;;;;;;5022827;28;20125;-71
2022/09/09 01:17:24;;;;;;;12.90;6.95;;;14.80;99.90;;;;;;5018987;28;20451;-72
2022/09/09 01:20:04;;;;;;;11.32;6.55;;;14.80;99.90;;;;;;5020780;28;20029;-72
2022/09/09 01:23:03;;;;;;;13.50;6.30;;;14.80;99.90;;;;;;4995043;28;20131;-71
2022/09/09 01:26:02;;;;;;;12.30;6.57;;;14.80;99.90;;;;;;4998936;28;20124;-71
2022/09/09 01:28:29;;;;;;;12.68;6.55;;;14.70;99.90;;;;;;5014054;28;20095;-71
2022/09/09 01:30:57;;;;;;;10.70;6.22;;;14.70;99.90;;;;;;5019991;28;20033;-71
2022/09/09 01:33:23;;;;;;;11.43;6.45;;;14.70;99.90;;;;;;5017255;28;20103;-71
2022/09/09 01:36:07;;;;;;;12.82;5.93;;;14.60;99.90;;;;;;5014651;28;20041;-70
2022/09/09 01:38:35;;;;;;;10.85;6.22;;;14.60;99.90;;;;;;5014263;28;20123;-73
2022/09/09 01:41:01;;;;;;;11.60;6.03;;;14.60;99.90;;;;;;4996135;28;20037;-71
2022/09/09 01:43:27;;;;;;;10.95;6.30;;;14.60;99.90;;;;;;5014105;28;20559;-72
2022/09/09 01:45:55;;;;;;;12.70;6.63;;;14.60;99.90;;;;;;5005527;28;20034;-71
2022/09/09 01:48:23;;;;;;;12.25;5.97;;;14.60;99.90;;;;;;5021028;28;20044;-71
2022/09/09 01:50:49;;;;;;;10.77;5.75;;;14.60;99.90;;;;;;5010448;28;20586;-71
2022/09/09 01:53:16;;;;;;;12.07;6.60;;;14.60;99.90;;;;;;5017605;28;20042;-71
2022/09/09 01:56:02;;;;;;;12.88;6.47;;;14.60;99.90;;;;;;5019743;28;20042;-71
2022/09/09 01:58:46;;;;;;;13.10;6.25;;;14.60;99.90;;;;;;5012155;28;20439;-71
2022/09/09 02:01:30;;;;;;;12.40;6.40;;;14.60;99.90;;;;;;5002748;28;20091;-71
2022/09/09 02:03:58;;;;;;;13.95;6.70;;;14.60;99.90;;;;;;5010929;28;20087;-70
2022/09/09 02:06:39;;;;;;;15.35;6.93;;;14.60;99.90;;;;;;5019997;28;20201;-72
2022/09/09 02:09:07;;;;;;;11.90;6.30;;;14.70;99.90;;;;;;5006816;28;20042;-71
2022/09/09 02:11:34;;;;;;;13.52;7.07;;;14.60;99.90;;;;;;4979675;28;20089;-72
2022/09/09 02:14:12;;;;;;;13.32;7.00;;;14.70;99.90;;;;;;5009186;28;20110;-71
2022/09/09 02:16:44;;;;;;;12.57;7.18;;;14.60;99.90;;;;;;5013631;28;20038;-71
2022/09/09 02:19:45;;;;;;;13.43;7.20;;;14.60;99.90;;;;;;5018217;28;20343;-71
2022/09/09 02:22:11;;;;;;;11.63;6.55;;;14.60;99.90;;;;;;5037917;28;20041;-72
2022/09/09 02:24:39;;;;;;;15.38;7.70;;;14.60;99.90;;;;;;5029262;28;20545;-71
2022/09/09 02:27:08;;;;;;;14.00;7.25;;;14.60;99.90;;;;;;5017208;28;20033;-72
2022/09/09 02:29:44;;;;;;;13.43;6.60;;;14.60;99.90;;;;;;5015511;28;20065;-71
2022/09/09 02:32:15;;;;;;;13.32;6.95;;;14.60;99.90;;;;;;5013838;28;20045;-72
2022/09/09 02:34:45;;;;;;;13.68;7.10;;;14.60;99.90;;;;;;5006464;28;20649;-72
2022/09/09 02:37:13;;;;;;;11.98;6.47;;;14.60;99.90;;;;;;5017373;28;20041;-72
2022/09/09 02:39:38;;;;;;;16.52;6.70;;;14.60;99.90;;;;;;4997086;28;20087;-71
2022/09/09 02:42:05;;;;;;;16.00;7.65;;;14.60;99.90;;;;;;5010515;28;20037;-71
2022/09/09 02:44:31;;;;;;;13.50;7.50;;;14.60;99.90;;;;;;5021061;28;20052;-71
2022/09/09 02:47:05;;;;;;;14.35;7.22;;;14.60;99.90;;;;;;5004683;28;20045;-72
2022/09/09 02:50:01;;;;;;;13.52;7.03;;;14.60;99.90;;;;;;5016097;28;20038;-71
2022/09/09 02:52:45;;;;;;;11.73;6.75;;;14.60;99.90;;;;;;5016704;28;20077;-71
2022/09/09 02:55:34;;;;;;;13.10;6.93;;;14.60;99.90;;;;;;4995534;28;20087;-71
2022/09/09 02:58:04;;;;;;;13.57;7.10;;;14.60;99.90;;;;;;4988611;28;20042;-72
2022/09/09 03:00:30;;;;;;;13.18;6.35;;;14.60;99.90;;;;;;5016800;28;20125;-72
2022/09/09 03:02:56;;;;;;;13.05;6.55;;;14.70;99.90;;;;;;5017526;28;20048;-70
2022/09/09 03:05:23;;;;;;;12.55;6.82;;;14.70;99.90;;;;;;5009945;28;20329;-72
2022/09/09 03:07:50;;;;;;;12.20;6.70;;;14.70;99.90;;;;;;5019036;28;20056;-72
2022/09/09 03:10:17;;;;;;;13.55;6.45;;;14.70;99.90;;;;;;5016438;28;20489;-71
2022/09/09 03:12:43;;;;;;;13.32;6.85;;;14.70;99.90;;;;;;5020732;28;20124;-72
2022/09/09 03:15:09;;;;;;;12.70;6.40;;;14.70;99.90;;;;;;4999569;28;20042;-71
2022/09/09 03:17:36;;;;;;;13.43;6.47;;;14.70;99.90;;;;;;5020839;28;20069;-73
2022/09/09 03:20:03;;;;;;;13.02;6.47;;;14.80;99.90;;;;;;5006939;28;20030;-72
2022/09/09 03:22:29;;;;;;;11.85;6.05;;;14.70;99.90;;;;;;5025512;28;20056;-71
2022/09/09 03:24:55;;;;;;;13.98;6.07;;;14.80;99.90;;;;;;5015576;28;20071;-71
2022/09/09 03:27:21;;;;;;;16.55;5.93;;;14.80;99.90;;;;;;5025005;28;20180;-72
2022/09/09 03:29:51;;;;;;;10.77;5.35;;;14.80;99.90;;;;;;5006489;28;20133;-71
2022/09/09 03:32:17;;;;;;;13.88;5.30;;;15.90;99.90;;;;;;4999125;28;20048;-71
2022/09/09 03:34:47;;;;;;;12.38;5.00;;;14.80;99.90;;;;;;5023290;28;20049;-72
2022/09/09 03:37:13;;;;;;;13.20;5.20;;;14.80;99.90;;;;;;5018370;28;20080;-71
2022/09/09 03:39:38;;;;;;;11.50;5.20;;;14.80;99.90;;;;;;5013375;28;20065;-71
2022/09/09 03:42:05;;;;;;;12.18;4.75;;;14.40;99.90;;;;;;4997643;28;20042;-72
2022/09/09 03:44:31;;;;;;;12.00;4.90;;;14.90;99.90;;;;;;5020320;28;20419;-71
2022/09/09 03:46:59;;;;;;;15.02;5.10;;;14.90;99.90;;;;;;5022134;28;20042;-71
2022/09/09 03:49:25;;;;;;;11.60;4.72;;;14.90;99.90;;;;;;5011114;28;20034;-73
2022/09/09 03:51:51;;;;;;;9.95;4.47;;;14.90;99.90;;;;;;4988564;28;20053;-71
2022/09/09 03:54:17;;;;;;;10.50;4.43;;;15.00;99.90;;;;;;4998682;28;20052;-71
2022/09/09 03:56:43;;;;;;;10.23;4.25;;;15.00;99.90;;;;;;5040314;28;20036;-72
2022/09/09 03:59:08;;;;;;;10.30;3.45;;;15.00;99.90;;;;;;5022344;28;20483;-71
2022/09/09 04:01:34;;;;;;;10.68;4.15;;;15.00;99.90;;;;;;5013033;28;20033;-72
2022/09/09 04:04:02;;;;;;;7.60;3.05;;;15.10;99.90;;;;;;5014849;28;20041;-72
2022/09/09 04:06:29;;;;;;;9.85;3.17;;;15.10;99.90;;;;;;5008901;28;20045;-71
2022/09/09 04:08:55;;;;;;;10.85;3.10;;;15.10;99.90;;;;;;4994489;28;20038;-72
2022/09/09 04:11:21;;;;;;;8.77;2.70;;;15.20;99.90;;;;;;5015216;28;20037;-71
2022/09/09 04:13:48;;;;;;;8.18;2.08;;;15.20;99.90;;;;;;5016116;28;20145;-72
2022/09/09 04:16:14;;;;;;;9.30;2.25;;;15.30;99.90;;;;;;5019977;28;20542;-72
2022/09/09 04:18:40;;;;;;;9.07;2.33;;;15.30;99.90;;;;;;5015947;28;20036;-72
2022/09/09 04:21:07;;;;;;;9.68;2.35;;;15.30;99.90;;;;;;5021290;28;20051;-72
2022/09/09 04:23:34;;;;;;;10.05;2.33;;;15.40;99.90;;;;;;5018163;28;20045;-74
2022/09/09 04:26:01;;;;;;;8.98;2.45;;;15.40;99.90;;;;;;5022180;28;20099;-74
2022/09/09 04:28:29;;;;;;;13.40;2.83;;;15.40;99.90;;;;;;5020329;28;20049;-73
2022/09/09 04:30:56;;;;;;;8.05;2.30;;;15.40;99.90;;;;;;4994129;28;20156;-74
2022/09/09 04:33:26;;;;;;;10.50;2.55;;;15.40;99.90;;;;;;5015579;28;20077;-74
2022/09/09 04:35:54;;;;;;;11.57;3.35;;;15.30;99.90;;;;;;5020557;28;20034;-75
2022/09/09 04:38:22;;;;;;;11.13;3.15;;;15.30;99.90;;;;;;5021957;28;20140;-75
2022/09/09 04:40:49;;;;;;;8.18;2.53;;;15.30;99.90;;;;;;5004661;28;20184;-75
2022/09/09 04:43:15;;;;;;;11.00;3.53;;;15.30;99.90;;;;;;5005062;28;20108;-73
2022/09/09 04:45:47;;;;;;;10.43;2.80;;;15.30;99.90;;;;;;5013834;28;20088;-75
2022/09/09 04:48:13;;;;;;;9.43;3.08;;;15.30;99.90;;;;;;5010057;28;20238;-74
2022/09/09 04:50:43;;;;;;;12.57;2.90;;;;;;;;;;5020047;28;20040;-74
2022/09/09 04:53:09;;;;;;;10.13;3.17;;;15.30;99.90;;;;;;5012197;28;20110;-74
2022/09/09 04:55:35;;;;;;;9.75;3.03;;;15.30;99.90;;;;;;5021521;28;20115;-72
2022/09/09 04:58:08;;;;;;;8.65;3.15;;;15.20;99.90;;;;;;4991433;28;20103;-74
2022/09/09 05:00:37;;;;;;;8.70;3.10;;;15.20;99.90;;;;;;5020013;28;20057;-72
2022/09/09 05:03:04;;;;;;;9.27;3.40;;;15.20;99.90;;;;;;5016241;28;20045;-72
2022/09/09 05:05:31;;;;;;;9.52;3.47;;;15.20;99.90;;;;;;5018177;28;20591;-73
2022/09/09 05:08:08;;;;;;;11.27;3.92;;;15.10;99.90;;;;;;5014756;28;20105;-72
2022/09/09 05:10:37;;;;;;;10.60;3.85;;;15.10;99.90;;;;;;5039438;28;20051;-73
2022/09/09 05:13:04;;;;;;;9.70;4.10;;;15.10;99.90;;;;;;4994887;28;20088;-73
2022/09/09 05:15:29;;;;;;;10.25;4.47;;;15.00;99.90;;;;;;5022471;28;20128;-73
2022/09/09 05:18:02;;;;;;;10.00;4.10;;;15.00;99.90;;;;;;5018100;28;20160;-72
2022/09/09 05:20:28;;;;;;;;;;;15.00;99.90;;;;;;5022107;28;20029;-73
2022/09/09 05:22:54;;;;;;;9.88;4.63;;;15.00;99.90;;;;;;5010487;28;19921;-73
2022/09/09 05:25:21;;;;;;;11.43;4.97;;;15.00;99.90;;;;;;5017841;28;20046;-72
2022/09/09 05:27:47;;;;;;;10.95;4.93;;;15.00;99.90;;;;;;5030853;28;20508;-72
2022/09/09 05:30:13;;;;;;;11.40;4.50;;;15.00;99.90;;;;;;5026397;28;20048;-73
2022/09/09 05:32:40;;;;;;;10.38;4.70;;;15.00;99.90;;;;;;5019700;28;20044;-72
2022/09/09 05:35:05;;;;;;;11.35;5.15;;;15.50;99.90;;;;;;5018368;28;20530;-72
2022/09/09 05:37:31;;;;;;;11.30;5.47;;;14.90;99.90;;;;;;5012292;28;20045;-72
2022/09/09 05:39:57;;;;;;;10.82;5.43;;;15.00;99.90;;;;;;5030587;28;20496;-72
2022/09/09 05:42:24;;;;;;;13.60;6.07;;;15.00;99.90;;;;;;5012200;28;20117;-72
2022/09/09 05:44:50;;;;;;;11.05;5.45;;;15.00;99.90;;;;;;5012620;28;20033;-72
2022/09/09 05:47:17;;;;;;;10.35;5.22;;;15.00;99.90;;;;;;5012942;28;20045;-72
2022/09/09 05:49:42;;;;;;;11.45;5.68;;;14.90;99.90;;;;;;5014025;28;20052;-72
2022/09/09 05:52:09;;;;;;;13.82;6.35;;;15.00;99.90;;;;;;5011544;28;20388;-72
2022/09/09 05:54:37;;;;;;;13.57;6.28;;;15.00;99.90;;;;;;5030858;28;20060;-71
2022/09/09 05:57:03;;;;;;;14.32;6.43;;;15.00;99.90;;;;;;5018244;28;20042;-73
2022/09/09 05:59:29;;;;;;;10.68;5.88;;;15.00;99.90;;;;;;4997168;28;20604;-71
2022/09/09 06:01:55;;;;;;;11.40;6.32;;;15.00;99.90;;;;;;5029526;28;20286;-71
2022/09/09 06:04:22;;;;;;;11.38;6.10;;;14.90;99.90;;;;;;5028440;28;20049;-71
2022/09/09 06:06:48;;;;;;;12.35;6.13;;;15.00;99.90;;;;;;5025113;28;20559;-71
2022/09/09 06:09:15;;;;;;;13.40;6.72;;;15.00;99.90;;;;;;5013963;28;20046;-71
2022/09/09 06:11:41;;;;;;;12.38;6.18;;;15.00;99.90;;;;;;5005570;28;20077;-72
2022/09/09 06:14:08;;;;;;;10.65;5.60;;;15.00;99.90;;;;;;5026547;28;20041;-71
2022/09/09 06:16:34;;;;;;;13.10;6.47;;;15.00;99.90;;;;;;5017893;28;20056;-71
2022/09/09 06:19:03;;;;;;;12.57;6.45;;;15.10;99.90;;;;;;5009976;28;20069;-71
2022/09/09 06:21:32;;;;;;;11.43;6.35;;;15.10;99.90;;;;;;5018976;28;20037;-70
2022/09/09 06:23:58;;;;;;;11.90;5.95;;;15.10;99.90;;;;;;5020207;28;20411;-71
2022/09/09 06:26:30;;;;;;;11.65;6.30;;;15.10;99.90;;;;;;5028700;28;20041;-69
2022/09/09 06:28:57;;;;;;;11.87;5.87;;;15.10;99.90;;;;;;5011299;28;20042;-70
2022/09/09 06:31:26;;;;;;;12.60;6.43;;;15.10;99.90;;;;;;5015368;28;20364;-71
2022/09/09 06:33:53;;;;;;;11.45;5.75;;;15.10;99.90;;;;;;5012140;28;20424;-70
2022/09/09 06:36:22;;;;;;;11.77;5.95;;;15.20;99.90;;;;;;5014603;28;20042;-71
2022/09/09 06:38:48;;;;;;;11.60;5.82;;;15.20;99.90;;;;;;4994844;28;20400;-70
2022/09/09 06:41:16;;;;;;;11.52;6.05;;;15.20;99.90;;;;;;5015555;28;20081;-70
2022/09/09 06:43:42;;;;;;;13.35;5.95;;;15.20;99.90;;;;;;5015197;28;20124;-71
2022/09/09 06:46:12;;;;;;;12.57;6.07;;;15.30;99.90;;;;;;4996506;28;20092;-70
2022/09/09 06:48:40;;;;;;;12.40;5.97;;;15.30;99.90;;;;;;5018315;28;20045;-71
2022/09/09 06:51:12;;;;;;;12.70;6.15;;;15.30;99.90;;;;;;5015399;28;20060;-71
2022/09/09 06:53:39;;;;;;;10.15;5.45;;;15.30;99.90;;;;;;5012417;28;20071;-70
2022/09/09 06:56:14;;;;;;;11.15;5.55;;;15.40;99.90;;;;;;5002376;28;21202;-71
2022/09/09 06:58:43;;;;;;;10.85;5.45;;;15.40;99.90;;;;;;5017687;28;20559;-71
2022/09/09 07:01:14;;;;;;;10.70;5.20;;;15.40;99.90;;;;;;4994666;28;20103;-71
2022/09/09 07:03:42;;;;;;;9.90;5.28;;;15.50;99.90;;;;;;5012008;28;20570;-70
2022/09/09 07:06:14;;;;;;;11.77;5.88;;;15.40;99.90;;;;;;5011944;28;20065;-71
2022/09/09 07:08:41;;;;;;;11.35;5.50;;;15.50;99.90;;;;;;5011475;28;20171;-71
2022/09/09 07:11:08;;;;;;;10.93;5.53;;;15.50;99.90;;;;;;5010293;28;20046;-71
2022/09/09 07:13:34;;;;;;;9.88;5.07;;;15.60;99.90;;;;;;5011528;28;20045;-70
2022/09/09 07:16:17;;;;;;;12.90;5.30;;;15.60;99.90;;;;;;5019290;28;20057;-70
2022/09/09 07:18:44;;;;;;;10.93;5.35;;;15.60;99.90;;;;;;5019242;28;20120;-70
2022/09/09 07:21:14;;;;;;;11.02;5.82;;;15.70;99.90;;;;;;5011939;28;20512;-71
2022/09/09 07:23:41;;;;;;;12.23;5.50;;;15.70;99.90;;;;;;5012638;28;20552;-71
2022/09/09 07:26:13;;;;;;;11.48;4.88;;;15.70;99.90;;;;;;5013429;28;20519;-72
2022/09/09 07:28:39;;;;;;;12.30;5.32;;;15.80;99.90;;;;;;5010844;28;20049;-71
2022/09/09 07:31:06;;;;;;;9.85;5.50;;;15.80;99.90;;;;;;4996026;28;20046;-69
2022/09/09 07:33:34;;;;;;;10.10;5.18;;;15.80;99.90;;;;;;5001149;28;20048;-70
2022/09/09 07:36:17;;;;;;;11.38;5.15;;;15.90;99.90;;;;;;5015732;28;20407;-71
2022/09/09 07:38:46;;;;;;;10.27;5.25;;;16.00;99.90;;;;;;5016050;28;20049;-71
2022/09/09 07:41:19;;;;;;;10.10;5.45;;;16.00;99.90;;;;;;5022362;28;20097;-70
2022/09/09 07:43:47;;;;;;;11.65;5.20;;;16.10;99.90;;;;;;5027489;28;20373;-71
2022/09/09 07:46:14;;;;;;;11.27;5.38;;;16.10;99.90;;;;;;4995280;28;20107;-71
2022/09/09 07:48:51;;;;;;;10.02;5.10;;;16.20;99.90;;;;;;5024047;28;20038;-72
2022/09/09 07:51:19;;;;;;;10.55;4.82;;;16.30;99.90;;;;;;5022168;28;20072;-71
2022/09/09 07:53:51;;;;;;;11.32;4.82;;;16.30;99.90;;;;;;5024952;28;20499;-70
2022/09/09 07:56:19;;;;;;;10.38;4.72;;;16.30;99.90;;;;;;5025223;28;20056;-73
2022/09/09 07:58:46;;;;;;;10.13;4.35;;;16.30;99.90;;;;;;5011825;28;20037;-71
2022/09/09 08:01:23;;;;;;;10.63;4.63;;;16.40;99.90;;;;;;5025434;28;20049;-72
2022/09/09 08:04:00;;;;;;;10.48;5.03;;;16.40;99.90;;;;;;5019409;28;20090;-71
2022/09/09 08:06:28;;;;;;;11.02;4.32;;;16.50;99.90;;;;;;5018649;28;20050;-71
2022/09/09 08:08:54;;;;;;;9.70;4.70;;;16.60;99.90;;;;;;5024261;28;20041;-71
2022/09/09 08:11:22;;;;;;;9.93;4.32;;;16.60;99.90;;;;;;5010475;28;20080;-71
2022/09/09 08:13:49;;;;;;;9.52;4.28;;;16.60;99.90;;;;;;5018242;28;20042;-71
2022/09/09 08:16:23;;;;;;;10.90;4.60;;;16.70;99.90;;;;;;5046772;28;20068;-71
2022/09/09 08:18:51;;;;;;;9.65;4.30;;;16.80;99.90;;;;;;5030235;28;20045;-71
2022/09/09 08:21:23;;;;;;;10.32;4.13;;;16.80;99.90;;;;;;5018449;28;20053;-72
2022/09/09 08:23:52;;;;;;;8.77;4.07;;;17.00;99.90;;;;;;5014114;28;20052;-71
2022/09/09 08:26:21;;;;;;;9.52;4.40;;;17.00;99.90;;;;;;5014797;28;20055;-72
2022/09/09 08:28:51;;;;;;;9.15;3.60;;;17.10;99.90;;;;;;5030664;28;20037;-71
2022/09/09 08:31:22;;;;;;;9.43;4.20;;;17.10;99.90;;;;;;5016273;28;20049;-71
2022/09/09 08:33:48;;;;;;;9.80;3.90;;;17.10;99.90;;;;;;5023564;28;20124;-72
2022/09/09 08:36:17;;;;;;;11.13;4.30;;;17.20;99.90;;;;;;5028114;28;20037;-72
2022/09/09 08:38:43;;;;;;;10.13;4.40;;;17.20;99.90;;;;;;5030373;28;20033;-73
2022/09/09 08:41:30;;;;;;;9.20;3.70;;;17.20;99.90;;;;;;5030824;28;20041;-71
2022/09/09 08:44:10;;;;;;;8.85;3.75;;;17.30;99.90;;;;;;5024137;28;20046;-71
2022/09/09 08:46:48;;;;;;;9.35;4.00;;;17.40;99.90;;;;;;5018470;28;20433;-71
2022/09/09 08:49:35;;;;;;;9.25;3.97;;;17.50;99.90;;;;;;5025708;28;20045;-72
2022/09/09 08:52:03;;;;;;;7.97;3.47;;;17.60;99.90;;;;;;5030473;28;20057;-71
2022/09/09 08:54:35;;;;;;;11.80;3.78;;;17.70;99.90;;;;;;5022158;28;20082;-73
2022/09/09 08:57:01;;;;;;;10.95;3.65;;;17.60;99.90;;;;;;5019847;28;20046;-71
2022/09/09 08:59:26;;;;;;;9.43;3.97;;;17.60;99.90;;;;;;5018449;28;20578;-72
2022/09/09 09:02:26;;;;;;;10.15;3.53;;;17.70;99.90;;;;;;5030550;28;20463;-71
2022/09/09 09:05:32;;;;;;;9.85;3.95;;;17.70;99.90;;;;;;5016874;28;20045;-71
2022/09/09 09:07:58;;;;;;;9.00;4.10;;;17.70;99.90;;;;;;4952204;28;20043;-71
2022/09/09 09:10:30;;;;;;;10.95;3.88;;;17.60;99.90;;;;;;5002018;28;20046;-72
2022/09/09 09:12:57;;;;;;;9.90;3.65;;;17.70;99.90;;;;;;5030683;28;20042;-71
2022/09/09 09:15:30;;;;;;;10.30;3.85;;;17.70;99.90;;;;;;5028640;28;20029;-72
2022/09/09 09:17:57;;;;;;;8.98;3.50;;;17.70;99.90;;;;;;5020502;28;20033;-72
2022/09/09 09:21:10;;;;;;;10.02;3.70;;;17.70;99.90;;;;;;4997909;28;20124;-72
2022/09/09 09:23:58;;;;;;;9.98;3.95;;;17.70;99.90;;;;;;5013394;28;20137;-72
2022/09/09 09:26:30;;;;;;;9.50;3.42;;;17.80;99.90;;;;;;5041521;28;20037;-73
2022/09/09 09:28:58;;;;;;;8.63;3.25;;;17.90;99.90;;;;;;5023079;28;20531;-72
2022/09/09 09:31:26;;;;;;;10.60;3.83;;;17.90;99.90;;;;;;5030312;28;20052;-72
2022/09/09 09:33:58;;;;;;;8.80;3.38;;;17.90;99.90;;;;;;5029237;28;20538;-72
2022/09/09 09:36:46;;;;;;;9.18;3.60;;;18.00;99.90;;;;;;5012580;28;20391;-72
2022/09/09 09:39:27;;;;;;;9.95;3.65;;;18.00;99.90;;;;;;5017667;28;20037;-72
2022/09/09 09:41:54;;;;;;;11.27;3.65;;;17.90;99.90;;;;;;5030194;28;20111;-73
2022/09/09 09:44:31;;;;;;;10.27;3.40;;;18.00;99.90;;;;;;5007961;28;20411;-72
2022/09/09 09:47:11;;;;;;;9.70;3.45;;;18.00;99.90;;;;;;5035107;28;20523;-72
2022/09/09 09:49:37;;;;;;;11.35;3.15;;;18.00;99.90;;;;;;5027367;28;20099;-72
2022/09/09 09:52:05;;;;;;;9.05;3.25;;;18.10;99.90;;;;;;5012995;28;20527;-72
2022/09/09 09:54:37;;;;;;;11.13;3.20;;;18.10;99.90;;;;;;5028593;28;20504;-71
2022/09/09 09:57:15;;;;;;;11.15;3.20;;;18.10;99.90;;;;;;5028000;28;20041;-71
2022/09/09 09:59:41;;;;;;;11.85;3.45;;;18.30;99.90;;;;;;5020182;28;20593;-71
2022/09/09 10:02:19;;;;;;;8.38;3.25;;;18.50;99.90;;;;;;5025390;28;20041;-72
2022/09/09 10:04:46;;;;;;;9.82;2.88;;;18.60;99.90;;;;;;5023540;28;20530;-72
2022/09/09 10:07:21;;;;;;;12.23;3.88;;;18.70;99.90;;;;;;5022442;28;20037;-72
2022/09/09 10:09:55;;;;;;;11.32;3.22;;;18.80;99.90;;;;;;5029798;28;20120;-71
2022/09/09 10:12:26;;;;;;;11.32;3.30;;;18.90;99.90;;;;;;5012914;28;20447;-72
2022/09/09 10:14:52;;;;;;;8.40;3.05;;;18.90;99.90;;;;;;5029672;28;20099;-71
2022/09/09 10:17:38;;;;;;;9.52;3.60;;;18.90;99.90;;;;;;5018536;28;20050;-72
2022/09/09 10:20:09;;;;;;;12.65;2.75;;;19.00;99.90;;;;;;5027084;28;20095;-72
2022/09/09 10:22:35;;;;;;;12.07;3.17;;;19.10;99.90;;;;;;5026417;28;20047;-72
2022/09/09 10:25:32;;;;;;;9.52;3.00;;;18.20;99.90;;;;;;5026527;28;20116;-74
2022/09/09 10:28:30;;;;;;;9.07;2.78;;;19.30;99.90;;;;;;5023808;28;20053;-72
2022/09/09 10:31:02;;;;;;;9.95;2.85;;;19.40;99.90;;;;;;5010035;28;20135;-72
2022/09/09 10:33:51;;;;;;;10.52;2.83;;;19.50;99.90;;;;;;5030330;28;20095;-72
2022/09/09 10:36:29;;;;;;;10.23;2.88;;;19.70;99.90;;;;;;5027258;28;20037;-73
2022/09/09 10:39:03;;;;;;;10.52;2.50;;;19.60;99.90;;;;;;5003883;28;20112;-73
2022/09/09 10:41:59;;;;;;;7.80;2.25;;;19.70;99.90;;;;;;5010451;28;20049;-72
2022/09/09 10:44:46;;;;;;;9.60;2.80;;;20.40;99.90;;;;;;5024418;28;20140;-73
2022/09/09 10:47:33;;;;;;;8.63;2.20;;;20.20;99.90;;;;;;5026798;28;20060;-72
2022/09/09 10:50:12;;;;;;;9.50;2.55;;;20.30;99.90;;;;;;5023441;28;20061;-72
2022/09/09 10:53:09;;;;;;;9.52;2.80;;;20.40;99.90;;;;;;5029859;28;20053;-72
2022/09/09 10:55:48;;;;;;;9.23;2.45;;;20.30;99.90;;;;;;5028677;28;20056;-72
2022/09/09 10:58:42;;;;;;;11.00;2.80;;;20.20;99.90;;;;;;5008562;28;20043;-72
2022/09/09 11:01:20;;;;;;;10.05;2.35;;;20.00;99.90;;;;;;5022258;28;20418;-72
2022/09/09 11:03:55;;;;;;;8.18;2.20;;;20.10;99.90;;;;;;5028824;28;20073;-72
2022/09/09 11:06:28;;;;;;;11.13;2.42;;;20.30;99.90;;;;;;5028323;28;20044;-71
2022/09/09 11:08:57;;;;;;;10.43;2.50;;;20.50;99.90;;;;;;5018902;28;20137;-71
2022/09/09 11:11:55;;;;;;;9.05;1.80;;;20.40;99.90;;;;;;5010259;28;20046;-73
2022/09/09 11:14:30;;;;;;;10.32;2.20;;;20.30;99.90;;;;;;5024675;28;20064;-72
2022/09/09 11:17:05;;;;;;;8.07;2.17;;;20.10;99.90;;;;;;5026890;28;20045;-72
2022/09/09 11:19:42;;;;;;;9.45;2.28;;;20.00;99.90;;;;;;5005377;28;20504;-72
2022/09/09 11:22:32;;;;;;;9.63;2.20;;;20.00;99.90;;;;;;5017398;28;20119;-73
2022/09/09 11:25:01;;;;;;;10.57;2.20;;;19.80;99.90;;;;;;5030459;28;20068;-72
2022/09/09 11:27:54;;;;;;;9.95;2.58;;;19.80;99.90;;;;;;5009531;28;20046;-72
2022/09/09 11:30:34;;;;;;;8.43;1.80;;;19.30;99.90;;;;;;5017259;28;20041;-74
2022/09/09 11:33:17;;;;;;;7.70;1.80;;;20.10;99.90;;;;;;5005819;28;20033;-72
2022/09/09 11:35:57;;;;;;;8.00;2.25;;;20.20;99.90;;;;;;5021638;28;20046;-72
2022/09/09 11:38:40;;;;;;;8.60;2.22;;;20.40;99.90;;;;;;5025535;28;20048;-73
2022/09/09 11:41:08;;;;;;;7.50;1.85;;;20.50;99.90;;;;;;5028632;28;20125;-71
2022/09/09 11:43:42;;;;;;;7.38;1.77;;;20.60;99.90;;;;;;5023327;28;20124;-73
2022/09/09 11:46:09;;;;;;;5.03;1.58;;;20.80;99.90;;;;;;5040747;28;20053;-72
2022/09/09 11:48:37;;;;;;;6.50;1.70;;;20.80;99.90;;;;;;5024371;28;20065;-70
2022/09/09 11:51:09;;;;;;;9.55;1.90;;;20.70;99.90;;;;;;5014093;28;20050;-74
2022/09/09 11:53:48;;;;;;;9.10;1.83;;;20.70;99.90;;;;;;5005027;28;20628;-72
2022/09/09 11:56:34;;;;;;;7.25;1.80;;;20.60;99.90;;;;;;5028658;28;20326;-72
2022/09/09 11:59:24;;;;;;;8.77;2.20;;;20.50;99.90;;;;;;5019074;28;20497;-73
2022/09/09 12:02:16;;;;;;;9.68;1.98;;;20.50;99.90;;;;;;5002313;28;20045;-71
2022/09/09 12:05:05;;;;;;;9.30;1.90;;;20.50;99.90;;;;;;5031261;28;20041;-72
2022/09/09 12:07:38;;;;;;;8.80;1.83;;;20.50;99.90;;;;;;5013611;28;20041;-72
2022/09/09 12:10:35;;;;;;;8.98;2.25;;;20.30;99.90;;;;;;5023887;28;20053;-72
2022/09/09 12:13:19;;;;;;;7.53;1.90;;;20.10;99.90;;;;;;5006117;28;20054;-74
2022/09/09 12:15:56;;;;;;;9.32;2.17;;;20.00;99.90;;;;;;5021806;28;20038;-73
2022/09/09 12:18:23;;;;;;;8.18;2.00;;;20.10;99.90;;;;;;5026515;28;20499;-73
2022/09/09 12:21:24;;;;;;;6.35;1.80;;;20.20;99.90;;;;;;5028939;28;20056;-72
2022/09/09 12:23:52;;;;;;;5.97;1.52;;;20.30;99.90;;;;;;5023904;28;20126;-72
2022/09/09 12:26:20;;;;;;;9.20;2.10;;;20.90;99.90;;;;;;5023661;28;20471;-73
2022/09/09 12:29:20;;;;;;;7.30;1.85;;;20.90;99.90;;;;;;5017246;28;20053;-72
2022/09/09 12:31:51;;;;;;;6.13;1.55;;;21.00;99.90;;;;;;5022915;28;20037;-72
2022/09/09 12:34:22;;;;;;;7.90;1.83;;;20.80;99.90;;;;;;5024309;28;20042;-71
2022/09/09 12:36:55;;;;;;;7.50;1.80;;;20.70;99.90;;;;;;5029789;28;20074;-72
2022/09/09 12:39:41;;;;;;;7.35;1.80;;;20.60;99.90;;;;;;5029782;28;20528;-71
2022/09/09 12:42:16;;;;;;;6.47;1.63;;;20.50;99.90;;;;;;5026196;28;20042;-71
2022/09/09 12:45:00;;;;;;;8.18;1.90;;;20.50;99.90;;;;;;5022225;28;20559;-72
2022/09/09 12:47:36;;;;;;;7.75;1.70;;;20.40;99.90;;;;;;5015687;28;20046;-72
2022/09/09 12:50:02;;;;;;;6.50;1.80;;;20.50;99.90;;;;;;5011983;28;20044;-73
2022/09/09 12:52:33;;;;;;;6.30;1.90;;;20.80;99.90;;;;;;5025892;28;20423;-71
2022/09/09 12:55:02;;;;;;;9.33;2.10;;;21.00;99.90;;;;;;5028941;28;20092;-71
2022/09/09 12:57:34;;;;;;;8.10;2.03;;;21.20;99.90;;;;;;5023895;28;20519;-71
2022/09/09 13:00:09;;;;;;;8.20;1.75;;;21.20;99.90;;;;;;5019025;28;20037;-72
2022/09/09 13:02:35;;;;;;;8.25;2.05;;;21.30;99.90;;;;;;5022033;28;20058;-71
2022/09/09 13:05:18;;;;;;;10.10;2.10;;;21.30;99.90;;;;;;5022633;28;20040;-71
2022/09/09 13:07:44;;;;;;;7.25;1.80;;;21.30;99.90;;;;;;4982184;28;20464;-70
2022/09/09 13:10:19;;;;;;;7.32;1.85;;;21.30;99.90;;;;;;5022067;28;20112;-71
2022/09/09 13:12:45;;;;;;;5.97;1.80;;;21.40;99.90;;;;;;5023669;28;20334;-72